Time;durP1;ratioP1;P1;durP2;ratioP2;P2;SDS_P1;SDS_P2;PMS_P1;PMS_P2;Temp;Humidity;BMP_temperature;BMP_pressure;BME280_temperature;BME280_humidity;BME280_pressure;Samples;Min_cycle;Max_cycle;Signal;HPM_P1;HPM_P2
2024/02/03 00:00:02;;;;;;;12.18;9.20;;;;;;;5.93;90.49;99365.53;4084624;28;20213;-85
2024/02/03 00:02:06;;;;;;;16.38;11.80;;;;;;;5.96;90.10;99365.44;4078632;29;20226;-85
2024/02/03 00:04:09;;;;;;;16.80;12.80;;;;;;;5.95;89.88;99366.34;4075410;29;20227;-85
2024/02/03 00:06:12;;;;;;;17.48;12.00;;;;;;;5.88;90.25;99359.63;4068218;29;20720;-85
2024/02/03 00:08:17;;;;;;;8.73;7.20;;;;;;;5.82;89.21;99368.44;4072588;29;20255;-85
2024/02/03 00:10:20;;;;;;;8.50;6.55;;;;;;;5.69;88.38;99355.88;4063090;29;20207;-85
2024/02/03 00:12:28;;;;;;;9.23;7.32;;;;;;;5.65;88.19;99346.47;4072812;29;20629;-87
2024/02/03 00:14:32;;;;;;;9.65;7.78;;;;;;;5.62;88.39;99351.75;4092371;28;20683;-85
2024/02/03 00:16:36;;;;;;;10.48;8.50;;;;;;;5.64;88.93;99355.16;4077892;29;20697;-85
2024/02/03 00:18:39;;;;;;;12.75;9.43;;;;;;;5.68;89.24;99354.16;4060926;29;20717;-85
2024/02/03 00:20:43;;;;;;;14.52;9.80;;;;;;;5.68;89.72;99351.56;4064241;29;20212;-87
2024/02/03 00:22:50;;;;;;;12.85;8.88;;;;;;;5.68;89.83;99352.44;4076541;29;20576;-85
2024/02/03 00:24:56;;;;;;;12.25;9.15;;;;;;;5.69;90.04;99351.53;4056248;29;20216;-87
2024/02/03 00:27:00;;;;;;;14.15;9.65;;;;;;;5.71;90.07;99346.31;4080496;29;20212;-87
2024/02/03 00:29:03;;;;;;;12.55;9.30;;;;;;;5.71;89.63;99342.00;4064907;29;20253;-87
2024/02/03 00:31:08;;;;;;;13.13;9.52;;;;;;;5.69;89.86;99348.09;4070072;29;20259;-87
2024/02/03 00:33:12;;;;;;;13.25;9.50;;;;;;;5.67;90.14;99353.31;4064464;29;20228;-87
2024/02/03 00:35:16;;;;;;;12.32;9.30;;;;;;;5.64;90.26;99348.22;4078776;29;20290;-86
2024/02/03 00:37:22;;;;;;;13.43;9.75;;;;;;;5.63;89.59;99345.69;4073840;29;20590;-86
2024/02/03 00:39:26;;;;;;;11.77;9.45;;;;;;;5.62;89.33;99350.03;4075362;29;20215;-86
2024/02/03 00:41:29;;;;;;;15.20;11.38;;;;;;;5.64;89.48;99362.91;4071945;29;20255;-88
2024/02/03 00:43:33;;;;;;;15.23;11.55;;;;;;;5.63;89.89;99354.28;4066537;29;20212;-85
2024/02/03 00:45:37;;;;;;;15.05;10.75;;;;;;;5.61;90.02;99357.84;4079562;29;20215;-85
2024/02/03 00:47:40;;;;;;;11.18;8.95;;;;;;;5.59;89.96;99356.16;4076883;29;20306;-86
2024/02/03 00:49:44;;;;;;;11.45;9.00;;;;;;;5.54;89.54;99358.88;4074488;29;20242;-86
2024/02/03 00:51:48;;;;;;;9.02;7.93;;;;;;;5.46;89.48;99360.84;4060819;29;20229;-86
2024/02/03 00:53:51;;;;;;;10.05;7.50;;;;;;;5.41;89.66;99362.72;4077391;29;20297;-86
2024/02/03 00:55:55;;;;;;;9.57;6.30;;;;;;;5.45;90.16;99350.53;4073700;29;20571;-86
2024/02/03 00:57:59;;;;;;;8.18;6.72;;;;;;;5.53;91.07;99352.00;4063323;29;20206;-86
2024/02/03 01:00:05;;;;;;;7.38;5.70;;;;;;;5.60;91.11;99363.88;4054615;29;20243;-86
2024/02/03 01:02:09;;;;;;;6.32;5.38;;;;;;;5.71;91.05;99361.84;4074167;29;20632;-86
2024/02/03 01:04:12;;;;;;;7.13;6.00;;;;;;;5.80;91.26;99372.81;4085146;28;20211;-86
2024/02/03 01:06:15;;;;;;;7.32;6.10;;;;;;;5.85;91.33;99367.47;4071002;29;20236;-86
2024/02/03 01:08:18;;;;;;;7.40;5.47;;;;;;;5.85;90.47;99365.75;4054797;29;20214;-86
2024/02/03 01:10:22;;;;;;;8.82;5.35;;;;;;;5.84;90.10;99368.41;4067196;29;20661;-86
2024/02/03 01:12:26;;;;;;;8.48;5.80;;;;;;;5.85;90.18;99370.06;4063115;29;20219;-86
2024/02/03 01:14:31;;;;;;;7.55;6.00;;;;;;;5.84;89.94;99373.56;4058909;29;20231;-86
2024/02/03 01:16:35;;;;;;;8.35;6.00;;;;;;;5.85;89.97;99370.06;4056193;29;20667;-86
2024/02/03 01:18:38;;;;;;;7.90;5.90;;;;;;;5.86;89.58;99364.00;4072165;29;20247;-86
2024/02/03 01:20:42;;;;;;;9.45;6.22;;;;;;;5.75;89.06;99363.47;4075637;29;20206;-86
2024/02/03 01:22:45;;;;;;;8.02;6.43;;;;;;;5.73;88.36;99367.84;4059993;29;20735;-86
2024/02/03 01:24:49;;;;;;;6.30;5.30;;;;;;;5.77;88.88;99372.03;4087913;28;20275;-86
2024/02/03 01:26:52;;;;;;;7.60;6.38;;;;;;;5.79;89.43;99381.47;4073551;29;20241;-88
2024/02/03 01:28:56;;;;;;;8.30;6.45;;;;;;;5.81;89.53;99382.25;4073795;29;20357;-86
2024/02/03 01:31:00;;;;;;;7.10;5.50;;;;;;;5.84;89.40;99381.34;4055819;29;20241;-87
2024/02/03 01:33:04;;;;;;;8.75;5.80;;;;;;;5.83;90.11;99369.28;4062227;29;20271;-86
2024/02/03 01:35:08;;;;;;;8.73;5.93;;;;;;;5.88;90.14;99375.16;4073040;29;20247;-86
2024/02/03 01:37:14;;;;;;;5.40;4.22;;;;;;;5.94;90.09;99373.25;4073636;29;20216;-88
2024/02/03 01:39:18;;;;;;;6.40;4.35;;;;;;;5.99;90.01;99367.94;4072975;29;20201;-85
2024/02/03 01:41:22;;;;;;;6.70;5.03;;;;;;;6.05;90.41;99366.00;4061736;29;20624;-86
2024/02/03 01:43:25;;;;;;;5.88;4.53;;;;;;;6.15;90.33;99375.22;4073056;29;20619;-87
2024/02/03 01:45:27;;;;;;;6.80;5.32;;;;;;;6.24;89.97;99370.59;4054131;29;20215;-87
2024/02/03 01:47:32;;;;;;;6.45;4.90;;;;;;;6.35;90.37;99367.66;4078588;29;20221;-87
2024/02/03 01:49:36;;;;;;;7.47;5.20;;;;;;;6.40;90.33;99370.94;4062554;29;20238;-88
2024/02/03 01:51:39;;;;;;;5.78;4.82;;;;;;;6.47;89.74;99362.09;4063750;29;20207;-87
2024/02/03 01:53:43;;;;;;;6.10;4.32;;;;;;;6.56;90.31;99367.84;4078165;29;20706;-89
2024/02/03 01:55:47;;;;;;;6.90;5.03;;;;;;;6.64;90.77;99364.06;4092435;28;20219;-88
2024/02/03 01:57:55;;;;;;;8.07;5.30;;;;;;;6.71;90.93;99370.78;4075868;29;20218;-86
2024/02/03 01:59:58;;;;;;;8.13;5.15;;;;;;;6.77;91.17;99361.97;4072134;29;20211;-87
2024/02/03 02:02:01;;;;;;;8.15;5.32;;;;;;;6.80;89.82;99367.88;4057091;29;20245;-86
2024/02/03 02:04:06;;;;;;;5.88;5.22;;;;;;;6.82;90.35;99365.22;4084517;28;20205;-87
2024/02/03 02:06:10;;;;;;;6.75;5.10;;;;;;;6.86;90.16;99366.84;4076430;29;20222;-88
2024/02/03 02:08:13;;;;;;;8.65;5.82;;;;;;;6.90;90.55;99363.22;4063997;29;20614;-87
2024/02/03 02:10:17;;;;;;;9.32;6.43;;;;;;;6.97;91.67;99369.91;4082390;29;20227;-87
2024/02/03 02:12:21;;;;;;;9.65;7.03;;;;;;;7.03;91.51;99369.72;4085000;29;20206;-87
2024/02/03 02:14:25;;;;;;;9.70;6.70;;;;;;;7.08;91.39;99364.31;4079475;29;20233;-88
2024/02/03 02:16:29;;;;;;;7.03;6.15;;;;;;;7.13;92.69;99364.16;4080781;29;20206;-87
2024/02/03 02:18:32;;;;;;;8.55;6.63;;;;;;;7.14;93.25;99361.50;4067003;29;20219;-87
2024/02/03 02:20:38;;;;;;;10.27;6.47;;;;;;;7.15;91.81;99367.53;4078183;29;20233;-87
2024/02/03 02:22:41;;;;;;;8.00;6.57;;;;;;;7.16;93.69;99370.06;4063952;29;20270;-87
2024/02/03 02:24:44;;;;;;;8.73;6.70;;;;;;;7.21;93.85;99367.31;4079109;29;20210;-87
2024/02/03 02:26:47;;;;;;;7.80;6.28;;;;;;;7.19;93.32;99362.19;4063948;29;20203;-89
2024/02/03 02:28:50;;;;;;;11.00;7.05;;;;;;;7.18;93.14;99370.84;4085172;29;20210;-88
2024/02/03 02:30:52;;;;;;;10.75;7.63;;;;;;;7.18;93.76;99357.06;4071892;29;20324;-87
2024/02/03 02:32:56;;;;;;;9.68;6.90;;;;;;;7.15;93.38;99355.41;4068362;29;20206;-87
2024/02/03 02:35:01;;;;;;;9.20;7.47;;;;;;;7.11;94.12;99353.84;4085874;29;20278;-87
2024/02/03 02:37:06;;;;;;;10.43;7.60;;;;;;;7.14;94.24;99353.72;4077472;29;20199;-87
2024/02/03 02:39:09;;;;;;;9.27;7.25;;;;;;;7.18;94.34;99355.28;4082367;29;20703;-86
2024/02/03 02:41:13;;;;;;;11.07;8.75;;;;;;;7.20;93.82;99353.53;4078456;29;20199;-86
2024/02/03 02:43:16;;;;;;;10.55;8.38;;;;;;;7.22;94.02;99348.28;4061485;29;20212;-86
2024/02/03 02:45:19;;;;;;;10.82;7.45;;;;;;;7.22;94.33;99341.34;4095686;28;20217;-87
2024/02/03 02:47:23;;;;;;;9.90;7.65;;;;;;;7.27;94.22;99339.41;4081705;29;20233;-86
2024/02/03 02:49:26;;;;;;;9.40;7.07;;;;;;;7.29;94.53;99344.53;4082352;29;20209;-87
2024/02/03 02:51:30;;;;;;;8.88;7.20;;;;;;;7.31;95.10;99348.78;4082685;29;20216;-86
2024/02/03 02:53:34;;;;;;;11.07;7.25;;;;;;;7.36;96.30;99351.22;4080408;29;21083;-87
2024/02/03 02:55:38;;;;;;;9.52;7.72;;;;;;;7.40;95.77;99355.41;4069336;29;20308;-87
2024/02/03 02:57:40;;;;;;;8.88;6.65;;;;;;;7.43;98.02;99355.28;4083283;29;20703;-87
2024/02/03 02:59:43;;;;;;;10.20;6.68;;;;;;;7.49;98.07;99359.34;4078075;29;20236;-88
2024/02/03 03:01:47;;;;;;;10.13;7.40;;;;;;;7.53;97.80;99357.50;4085340;29;20849;-87
2024/02/03 03:03:54;;;;;;;10.85;7.68;;;;;;;7.58;97.88;99366.81;4078106;29;20214;-87
2024/02/03 03:05:58;;;;;;;8.68;7.00;;;;;;;7.62;98.13;99362.34;4057792;29;20229;-87
2024/02/03 03:08:02;;;;;;;11.70;7.40;;;;;;;7.66;97.83;99356.16;4078571;29;20240;-87
2024/02/03 03:10:07;;;;;;;10.85;7.18;;;;;;;7.73;99.18;99357.63;4066778;29;21373;-88
2024/02/03 03:12:11;;;;;;;11.25;8.25;;;;;;;7.74;99.27;99357.59;4064769;29;20215;-87
2024/02/03 03:14:17;;;;;;;9.93;6.93;;;;;;;7.78;98.72;99351.34;4083807;29;20763;-87
2024/02/03 03:16:20;;;;;;;10.32;7.68;;;;;;;7.81;98.25;99355.59;4081890;29;20250;-87
2024/02/03 03:18:23;;;;;;;11.38;7.97;;;;;;;7.84;99.27;99356.31;4081878;29;20928;-89
2024/02/03 03:20:26;;;;;;;10.57;8.05;;;;;;;7.88;99.55;99349.25;4067113;29;20229;-86
2024/02/03 03:22:30;;;;;;;10.23;7.25;;;;;;;7.90;100.00;99356.09;4078916;29;20297;-87
2024/02/03 03:24:33;;;;;;;8.75;7.65;;;;;;;7.93;100.00;99348.19;4063282;29;20223;-87
2024/02/03 03:26:42;;;;;;;10.70;7.28;;;;;;;7.97;99.34;99354.97;4063420;29;20215;-87
2024/02/03 03:28:45;;;;;;;10.18;7.28;;;;;;;7.98;100.00;99346.25;4071646;29;20254;-88
2024/02/03 03:30:49;;;;;;;10.00;7.10;;;;;;;8.01;100.00;99362.59;4064034;29;20241;-87
2024/02/03 03:32:52;;;;;;;9.23;7.22;;;;;;;8.01;100.00;99351.31;4079868;29;20241;-88
2024/02/03 03:34:55;;;;;;;9.18;6.93;;;;;;;8.00;100.00;99355.69;4078499;29;20289;-88
2024/02/03 03:36:58;;;;;;;9.13;6.97;;;;;;;8.00;100.00;99350.50;4079164;29;20837;-87
2024/02/03 03:39:02;;;;;;;9.73;7.97;;;;;;;8.03;100.00;99354.72;4061682;29;20217;-87
2024/02/03 03:41:04;;;;;;;10.05;7.43;;;;;;;8.03;99.28;99349.53;4094226;28;20197;-86
2024/02/03 03:43:09;;;;;;;9.32;7.10;;;;;;;8.03;100.00;99354.72;4073068;29;20218;-88
2024/02/03 03:45:12;;;;;;;10.18;7.85;;;;;;;8.01;100.00;99354.78;4058943;29;20210;-87
2024/02/03 03:47:15;;;;;;;11.50;8.30;;;;;;;8.01;100.00;99353.94;4072391;29;20214;-88
2024/02/03 03:49:19;;;;;;;11.20;7.25;;;;;;;8.01;100.00;99356.53;4062043;29;20257;-87
2024/02/03 03:51:22;;;;;;;10.20;7.70;;;;;;;8.00;99.00;99353.09;4063192;29;20230;-87
2024/02/03 03:53:25;;;;;;;9.40;7.40;;;;;;;8.04;100.00;99357.28;4076343;29;20695;-87
2024/02/03 03:55:29;;;;;;;11.82;8.35;;;;;;;8.07;100.00;99361.47;4061245;29;20727;-87
2024/02/03 03:57:31;;;;;;;10.18;8.57;;;;;;;8.06;98.45;99371.03;4060729;29;20276;-88
2024/02/03 03:59:36;;;;;;;10.10;7.75;;;;;;;8.07;98.86;99362.34;4070613;29;20669;-87
2024/02/03 04:01:39;;;;;;;10.05;8.65;;;;;;;8.10;99.19;99361.38;4061655;29;20250;-87
2024/02/03 04:03:42;;;;;;;9.20;7.28;;;;;;;8.01;98.83;99372.97;4063570;29;20225;-87
2024/02/03 04:05:46;;;;;;;8.93;6.93;;;;;;;8.04;100.00;99367.66;4072596;29;20232;-88
2024/02/03 04:07:49;;;;;;;9.27;7.28;;;;;;;8.09;99.79;99368.31;4055917;29;20223;-88
2024/02/03 04:09:52;;;;;;;10.27;7.90;;;;;;;8.15;100.00;99372.50;4047911;29;20617;-88
2024/02/03 04:11:55;;;;;;;11.50;8.00;;;;;;;8.21;99.50;99380.03;4086634;28;20243;-87
2024/02/03 04:13:58;;;;;;;10.07;7.30;;;;;;;8.24;99.51;99372.97;4070216;29;20230;-87
2024/02/03 04:16:06;;;;;;;9.93;7.70;;;;;;;8.27;100.00;99379.78;4087380;28;20213;-88
2024/02/03 04:18:09;;;;;;;9.10;7.25;;;;;;;8.28;100.00;99371.94;4068922;29;20250;-88
2024/02/03 04:20:16;;;;;;;10.20;7.50;;;;;;;8.31;100.00;99382.22;4069931;29;20609;-87
2024/02/03 04:22:19;;;;;;;9.52;7.18;;;;;;;8.33;99.43;99377.81;4057766;29;20214;-87
2024/02/03 04:24:22;;;;;;;10.73;7.45;;;;;;;8.38;100.00;99383.69;4072332;29;20210;-87
2024/02/03 04:26:26;;;;;;;8.25;6.63;;;;;;;8.40;100.00;99387.03;4076914;29;20210;-87
2024/02/03 04:28:30;;;;;;;10.75;7.07;;;;;;;8.42;99.76;99387.00;4059563;29;20207;-89
2024/02/03 04:30:34;;;;;;;8.85;6.90;;;;;;;8.44;99.66;99393.84;4049636;29;20311;-87
2024/02/03 04:32:39;;;;;;;9.68;7.93;;;;;;;8.46;99.35;99389.41;4072190;29;20206;-87
2024/02/03 04:34:42;;;;;;;10.32;7.43;;;;;;;8.52;99.59;99389.16;4071256;29;20213;-88
2024/02/03 04:36:47;;;;;;;10.80;7.78;;;;;;;8.57;100.00;99389.84;4068159;29;20211;-88
2024/02/03 04:38:50;;;;;;;9.75;7.57;;;;;;;8.58;98.99;99379.38;4073923;29;20206;-88
2024/02/03 04:40:53;;;;;;;9.98;7.50;;;;;;;8.63;100.00;99380.06;4062102;29;20207;-87
2024/02/03 04:42:57;;;;;;;9.15;8.00;;;;;;;8.66;99.06;99384.25;4077475;29;20237;-87
2024/02/03 04:45:00;;;;;;;8.73;7.10;;;;;;;8.68;100.00;99385.91;4061619;29;20214;-87
2024/02/03 04:47:04;;;;;;;10.20;7.53;;;;;;;8.73;99.38;99385.72;4071735;29;20289;-87
2024/02/03 04:49:09;;;;;;;9.50;7.22;;;;;;;8.75;99.25;99384.75;4075870;29;20692;-88
2024/02/03 04:51:14;;;;;;;10.43;7.95;;;;;;;8.79;99.45;99385.47;4061386;29;20333;-87
2024/02/03 04:53:17;;;;;;;9.40;7.47;;;;;;;8.81;99.83;99389.72;4076419;29;20215;-87
2024/02/03 04:55:22;;;;;;;9.95;7.38;;;;;;;8.83;100.00;99389.66;4061321;29;20211;-87
2024/02/03 04:57:25;;;;;;;8.88;7.30;;;;;;;8.82;99.24;99386.19;4077801;29;20202;-87
2024/02/03 04:59:28;;;;;;;9.57;8.10;;;;;;;8.83;99.71;99390.50;4075799;29;20206;-87
2024/02/03 05:01:34;;;;;;;9.13;7.63;;;;;;;8.77;100.00;99376.91;4061027;29;20642;-87
2024/02/03 05:03:37;;;;;;;10.25;8.00;;;;;;;8.74;99.59;99382.22;4071123;29;20630;-87
2024/02/03 05:05:43;;;;;;;10.00;7.90;;;;;;;8.66;100.00;99379.06;4084359;28;20232;-87
2024/02/03 05:07:46;;;;;;;11.20;7.97;;;;;;;8.66;100.00;99376.47;4067878;29;20225;-87
2024/02/03 05:09:49;;;;;;;9.68;7.82;;;;;;;8.71;100.00;99382.34;4069875;29;20294;-87
2024/02/03 05:11:54;;;;;;;11.68;8.57;;;;;;;8.70;99.79;99380.63;4059066;29;20262;-87
2024/02/03 05:13:57;;;;;;;11.48;7.88;;;;;;;8.68;100.00;99377.28;4076088;29;20206;-87
2024/02/03 05:16:00;;;;;;;10.48;8.15;;;;;;;8.69;100.00;99373.75;4063655;29;20211;-87
2024/02/03 05:18:04;;;;;;;11.00;8.43;;;;;;;8.67;100.00;99376.41;4079561;28;20859;-87
2024/02/03 05:20:07;;;;;;;10.27;8.05;;;;;;;8.66;100.00;99359.13;4074268;29;20300;-87
2024/02/03 05:22:12;;;;;;;10.45;7.88;;;;;;;8.67;100.00;99375.56;4072427;29;20598;-86
2024/02/03 05:24:15;;;;;;;9.82;7.50;;;;;;;8.67;100.00;99379.00;4067508;29;20207;-87
2024/02/03 05:26:18;;;;;;;9.93;7.40;;;;;;;8.68;100.00;99385.06;4075560;29;20272;-87
2024/02/03 05:28:21;;;;;;;11.02;8.10;;;;;;;8.66;100.00;99384.25;4055761;29;20207;-87
2024/02/03 05:30:25;;;;;;;10.10;7.90;;;;;;;8.66;100.00;99379.06;4075052;29;20687;-87
2024/02/03 05:32:29;;;;;;;10.15;7.65;;;;;;;8.65;100.00;99380.00;4074851;29;20701;-87
2024/02/03 05:34:32;;;;;;;12.30;8.60;;;;;;;8.64;100.00;99383.47;4062899;29;20211;-87
2024/02/03 05:36:36;;;;;;;10.45;8.25;;;;;;;8.66;100.00;99379.06;4072179;29;20587;-87
2024/02/03 05:38:41;;;;;;;10.52;7.93;;;;;;;8.66;100.00;99379.94;4054702;29;20228;-88
2024/02/03 05:40:44;;;;;;;13.10;8.20;;;;;;;8.68;100.00;99387.66;4076886;29;20205;-88
2024/02/03 05:42:46;;;;;;;10.27;7.75;;;;;;;8.70;100.00;99385.84;4053026;29;21228;-88
2024/02/03 05:44:49;;;;;;;10.20;7.95;;;;;;;8.73;100.00;99390.91;4070311;29;20626;-87
2024/02/03 05:46:52;;;;;;;10.67;7.80;;;;;;;8.73;100.00;99388.31;4071534;29;20210;-87
2024/02/03 05:48:55;;;;;;;9.45;8.00;;;;;;;8.76;100.00;99393.41;4074000;29;20618;-87
2024/02/03 05:50:58;;;;;;;12.38;7.55;;;;;;;8.78;100.00;99386.38;4076510;29;20220;-87
2024/02/03 05:53:01;;;;;;;11.63;7.90;;;;;;;8.79;100.00;99385.47;4073069;29;20747;-88
2024/02/03 05:55:09;;;;;;;9.75;7.30;;;;;;;8.82;100.00;99398.34;4068152;29;20633;-87
2024/02/03 05:57:11;;;;;;;11.05;7.70;;;;;;;8.83;100.00;99394.84;4053650;29;20211;-88
2024/02/03 05:59:14;;;;;;;10.82;7.90;;;;;;;8.87;100.00;99404.22;4049899;29;20215;-88
2024/02/03 06:01:37;;;;;;;9.85;7.43;;;;;;;8.87;100.00;99399.88;4075133;29;20224;-87
2024/02/03 06:03:41;;;;;;;9.63;7.43;;;;;;;8.85;100.00;99403.44;4067530;29;20212;-86
2024/02/03 06:05:44;;;;;;;12.00;7.85;;;;;;;8.74;100.00;99390.03;4062198;29;20226;-86
2024/02/03 06:08:07;;;;;;;10.30;7.32;;;;;;;8.73;100.00;99399.56;4053416;29;20347;-86
2024/02/03 06:10:12;;;;;;;11.13;7.75;;;;;;;8.75;100.00;99400.38;4070282;29;20232;-86
2024/02/03 06:12:15;;;;;;;11.13;8.00;;;;;;;8.77;100.00;99395.09;4070239;29;20231;-86
2024/02/03 06:14:19;;;;;;;10.15;7.82;;;;;;;8.80;100.00;99395.81;4053031;29;20238;-86
2024/02/03 06:16:21;;;;;;;12.20;8.18;;;;;;;8.82;100.00;99388.78;4057736;29;20221;-86
2024/02/03 06:18:24;;;;;;;10.88;8.20;;;;;;;8.77;100.00;99389.91;4057965;29;20947;-86
2024/02/03 06:20:27;;;;;;;14.90;8.90;;;;;;;8.72;100.00;99384.00;4063883;29;20258;-86
2024/02/03 06:22:30;;;;;;;11.55;8.95;;;;;;;8.73;100.00;99390.91;4067067;29;20294;-86
2024/02/03 06:24:33;;;;;;;11.93;7.83;;;;;;;8.73;100.00;99390.91;4075111;29;20210;-85
2024/02/03 06:26:37;;;;;;;10.85;8.05;;;;;;;8.71;100.00;99393.59;4061525;29;20638;-85
2024/02/03 06:28:40;;;;;;;11.48;9.00;;;;;;;8.69;100.00;99386.75;4059838;29;20308;-86
2024/02/03 06:30:43;;;;;;;12.98;8.95;;;;;;;8.67;100.00;99392.00;4060613;29;20310;-85
2024/02/03 06:32:47;;;;;;;13.95;8.88;;;;;;;8.60;100.00;99395.78;4085385;28;20281;-85
2024/02/03 06:34:51;;;;;;;12.52;8.90;;;;;;;8.50;100.00;99393.59;4075709;29;20207;-85
2024/02/03 06:36:54;;;;;;;13.23;8.80;;;;;;;8.44;100.00;99399.88;4075781;29;20206;-86
2024/02/03 06:38:58;;;;;;;11.93;8.98;;;;;;;8.40;100.00;99391.41;4052557;29;20274;-84
2024/02/03 06:41:01;;;;;;;14.77;10.15;;;;;;;8.35;100.00;99403.75;4073969;29;20291;-87
2024/02/03 06:43:05;;;;;;;13.73;9.65;;;;;;;8.32;100.00;99407.31;4058196;29;20294;-85
2024/02/03 06:45:11;;;;;;;16.65;10.52;;;;;;;8.27;100.00;99406.63;4068565;29;20217;-85
2024/02/03 06:47:15;;;;;;;12.40;9.30;;;;;;;8.32;100.00;99411.66;4085120;28;20884;-85
2024/02/03 06:49:18;;;;;;;14.75;10.75;;;;;;;8.32;100.00;99417.69;4055292;29;20266;-85
2024/02/03 06:51:22;;;;;;;13.23;9.60;;;;;;;8.38;100.00;99419.22;4052836;29;20275;-85
2024/02/03 06:53:25;;;;;;;12.65;9.75;;;;;;;8.40;100.00;99423.44;4069138;29;20230;-85
2024/02/03 06:55:27;;;;;;;13.80;9.93;;;;;;;8.45;100.00;99429.31;4076191;29;20214;-85
2024/02/03 06:57:31;;;;;;;16.02;10.82;;;;;;;8.51;100.00;99432.53;4078442;29;20225;-86
2024/02/03 06:59:35;;;;;;;13.90;10.30;;;;;;;8.56;100.00;99427.16;4074750;29;20217;-85
2024/02/03 07:01:38;;;;;;;14.40;10.38;;;;;;;8.54;100.00;99429.81;4078103;29;20218;-85
2024/02/03 07:03:42;;;;;;;13.60;9.63;;;;;;;8.45;100.00;99424.13;4077502;29;21930;-86
2024/02/03 07:05:45;;;;;;;13.15;9.98;;;;;;;8.37;100.00;99420.94;4066695;29;20288;-85
2024/02/03 07:07:48;;;;;;;14.27;10.52;;;;;;;8.22;100.00;99418.94;4091152;28;20221;-85
2024/02/03 07:09:51;;;;;;;13.88;10.00;;;;;;;8.16;100.00;99411.41;4082718;28;20207;-85
2024/02/03 07:11:54;;;;;;;14.55;10.20;;;;;;;8.14;100.00;99409.75;4064581;29;20210;-85
2024/02/03 07:14:09;;;;;;;13.95;10.52;;;;;;;8.13;100.00;99423.63;4062950;29;20214;-85
2024/02/03 07:16:15;;;;;;;15.93;12.02;;;;;;;8.07;100.00;99423.84;4072936;29;20204;-85
2024/02/03 07:18:18;;;;;;;15.93;11.43;;;;;;;7.98;100.00;99429.38;4065021;29;20287;-85
2024/02/03 07:20:22;;;;;;;14.88;11.65;;;;;;;7.92;100.00;99426.16;4074259;29;20215;-85
2024/02/03 07:22:25;;;;;;;15.18;11.45;;;;;;;7.90;100.00;99427.97;4065141;29;20661;-86
2024/02/03 07:24:29;;;;;;;14.98;10.48;;;;;;;7.87;100.00;99436.72;4063392;29;20218;-86
2024/02/03 07:26:32;;;;;;;14.40;10.57;;;;;;;7.87;100.00;99435.88;4073401;29;20663;-86
2024/02/03 07:28:36;;;;;;;16.25;11.07;;;;;;;7.87;100.00;99433.28;4060949;29;20207;-86
2024/02/03 07:30:39;;;;;;;14.32;9.70;;;;;;;7.87;100.00;99433.28;4049330;29;20262;-87
2024/02/03 07:32:44;;;;;;;13.25;10.38;;;;;;;7.90;100.00;99430.56;4062975;29;20717;-87
2024/02/03 07:34:47;;;;;;;15.77;10.57;;;;;;;7.93;100.00;99433.06;4079097;29;20210;-85
2024/02/03 07:36:51;;;;;;;14.55;10.20;;;;;;;7.91;100.00;99427.03;4076805;29;20234;-86
2024/02/03 07:38:54;;;;;;;13.57;9.00;;;;;;;7.84;100.00;99425.59;4089825;28;20238;-86
2024/02/03 07:40:57;;;;;;;14.73;9.25;;;;;;;7.81;100.00;99425.69;4078695;29;20212;-85
2024/02/03 07:42:59;;;;;;;13.80;9.15;;;;;;;7.80;100.00;99426.59;4065116;29;20217;-85
2024/02/03 07:45:03;;;;;;;12.00;8.65;;;;;;;7.77;100.00;99424.09;4078994;29;20274;-86
2024/02/03 07:47:06;;;;;;;13.52;8.45;;;;;;;7.74;100.00;99429.41;4075178;29;21285;-86
2024/02/03 07:49:11;;;;;;;13.10;9.25;;;;;;;7.69;100.00;99431.34;4061485;29;20229;-85
2024/02/03 07:51:14;;;;;;;14.48;10.05;;;;;;;7.67;100.00;99427.94;4078705;29;20626;-85
2024/02/03 07:53:18;;;;;;;15.50;10.18;;;;;;;7.61;100.00;99428.16;4074973;29;20542;-86
2024/02/03 07:55:21;;;;;;;15.50;10.65;;;;;;;7.65;100.00;99434.94;4059533;29;20629;-85
2024/02/03 07:57:25;;;;;;;12.48;8.80;;;;;;;7.67;100.00;99427.94;4076125;29;20711;-86
2024/02/03 07:59:28;;;;;;;13.13;10.00;;;;;;;7.64;100.00;99428.06;4078467;29;20281;-85
2024/02/03 08:01:32;;;;;;;11.93;8.90;;;;;;;7.58;100.00;99428.28;4077984;29;20253;-85
2024/02/03 08:03:35;;;;;;;11.35;8.63;;;;;;;7.63;100.00;99434.13;4080756;29;20217;-85
2024/02/03 08:05:40;;;;;;;13.40;9.07;;;;;;;7.64;100.00;99434.09;4061142;29;20249;-85
2024/02/03 08:07:43;;;;;;;12.68;9.00;;;;;;;7.70;100.00;99441.66;4075112;29;20217;-85
2024/02/03 08:09:46;;;;;;;12.63;8.43;;;;;;;7.82;100.00;99448.16;4057014;29;20804;-86
2024/02/03 08:11:51;;;;;;;12.32;8.60;;;;;;;7.88;100.00;99442.75;4070198;28;20668;-86
2024/02/03 08:13:54;;;;;;;11.68;8.30;;;;;;;7.95;100.00;99444.22;4075887;29;20700;-85
2024/02/03 08:15:57;;;;;;;10.43;7.78;;;;;;;8.03;100.00;99451.69;4058947;29;20250;-86
2024/02/03 08:18:01;;;;;;;12.45;8.73;;;;;;;8.08;100.00;99459.31;4088685;29;20614;-88
2024/02/03 08:20:05;;;;;;;10.50;8.02;;;;;;;8.12;100.00;99455.75;4074349;29;20214;-87
2024/02/03 08:22:14;;;;;;;11.80;8.40;;;;;;;8.19;100.00;99454.59;4059736;29;20210;-87
2024/02/03 08:24:16;;;;;;;10.43;8.25;;;;;;;8.25;100.00;99452.59;4077304;29;20209;-83
2024/02/03 08:26:20;;;;;;;9.23;7.15;;;;;;;8.30;100.00;99452.44;4064818;29;20278;-87
2024/02/03 08:28:23;;;;;;;10.82;8.15;;;;;;;8.35;100.00;99451.38;4071539;29;20293;-88
2024/02/03 08:30:28;;;;;;;12.23;7.75;;;;;;;8.33;100.00;99453.19;4077893;29;20250;-87
2024/02/03 08:32:31;;;;;;;12.57;8.10;;;;;;;8.38;100.00;99453.00;4076385;29;20245;-85
2024/02/03 08:34:35;;;;;;;10.43;7.35;;;;;;;8.37;100.00;99454.75;4063480;29;20778;-84
2024/02/03 08:36:38;;;;;;;10.05;7.40;;;;;;;8.41;100.00;99455.50;4073647;29;20211;-84
2024/02/03 08:38:43;;;;;;;9.45;6.85;;;;;;;8.47;100.00;99453.50;4053237;29;20222;-83
2024/02/03 08:40:46;;;;;;;8.88;6.63;;;;;;;8.49;100.00;99454.28;4061854;29;20626;-83
2024/02/03 08:42:50;;;;;;;11.20;7.25;;;;;;;8.51;100.00;99457.69;4074043;29;20313;-83
2024/02/03 08:44:54;;;;;;;11.45;7.18;;;;;;;8.54;100.00;99462.78;4057724;29;20242;-84
2024/02/03 08:46:57;;;;;;;9.48;7.05;;;;;;;8.58;100.00;99465.16;4074699;29;20205;-85
2024/02/03 08:49:01;;;;;;;8.45;5.97;;;;;;;8.60;100.00;99465.09;4070928;29;20705;-84
2024/02/03 08:51:04;;;;;;;8.98;6.18;;;;;;;8.60;100.00;99467.69;4074098;29;20239;-85
2024/02/03 08:53:08;;;;;;;9.27;7.00;;;;;;;8.65;100.00;99476.19;4065688;29;20210;-85
2024/02/03 08:55:12;;;;;;;8.55;6.72;;;;;;;8.67;100.00;99479.56;4076525;29;20672;-88
2024/02/03 08:57:16;;;;;;;7.90;6.45;;;;;;;8.69;100.00;99478.63;4064123;29;20234;-86
2024/02/03 08:59:19;;;;;;;7.78;5.90;;;;;;;8.73;100.00;99474.13;4076023;29;20643;-85
2024/02/03 09:01:23;;;;;;;12.43;6.70;;;;;;;8.74;100.00;99478.44;4061422;29;20322;-84
2024/02/03 09:03:27;;;;;;;8.97;6.20;;;;;;;8.74;100.00;99473.25;4061687;29;20211;-85
2024/02/03 09:05:30;;;;;;;8.27;6.30;;;;;;;8.74;100.00;99474.09;4062114;29;22636;-86
2024/02/03 09:07:34;;;;;;;8.50;6.30;;;;;;;8.77;100.00;99476.56;4058041;29;20643;-85
2024/02/03 09:09:37;;;;;;;8.32;6.35;;;;;;;8.77;100.00;99473.13;4071641;28;20640;-86
2024/02/03 09:11:42;;;;;;;7.90;5.90;;;;;;;8.77;100.00;99475.72;4087502;28;20213;-84
2024/02/03 09:13:45;;;;;;;12.10;6.40;;;;;;;8.81;100.00;99472.94;4077102;29;21240;-84
2024/02/03 09:15:48;;;;;;;9.13;6.60;;;;;;;8.86;100.00;99471.00;4079916;29;20625;-84
2024/02/03 09:17:52;;;;;;;8.18;5.50;;;;;;;8.88;100.00;99469.19;4063231;29;20306;-86
2024/02/03 09:19:55;;;;;;;9.05;6.32;;;;;;;8.90;100.00;99469.13;4073423;29;20307;-84
2024/02/03 09:21:59;;;;;;;8.65;7.22;;;;;;;8.92;100.00;99474.19;4070995;29;20214;-84
2024/02/03 09:24:01;;;;;;;19.48;15.45;;;;;;;8.95;100.00;99479.28;4059947;29;20302;-84
2024/02/03 09:26:05;;;;;;;9.77;7.60;;;;;;;8.98;100.00;99476.56;4070138;29;20259;-84
2024/02/03 09:28:10;;;;;;;8.37;5.40;;;;;;;8.99;100.00;99470.47;4053755;29;20702;-84
2024/02/03 09:30:17;;;;;;;8.63;7.30;;;;;;;8.98;100.00;99460.94;4069665;29;20685;-84
2024/02/03 09:32:23;;;;;;;5.10;4.25;;;;;;;9.01;100.00;99465.19;4070973;29;20297;-84
2024/02/03 09:34:28;;;;;;;7.27;5.10;;;;;;;9.03;100.00;99469.41;4070647;29;20226;-84
2024/02/03 09:36:34;;;;;;;8.70;6.70;;;;;;;9.05;100.00;99462.41;4075839;29;20685;-84
2024/02/03 09:38:37;;;;;;;6.57;5.43;;;;;;;9.06;100.00;99452.84;4072121;29;20692;-84
2024/02/03 09:40:40;;;;;;;6.80;5.40;;;;;;;9.07;100.00;99454.53;4090179;28;20257;-84